sensor_id;sensor_type;location;lat;lon;timestamp;temperature;humidity
65637;DHT22;52327;42.622;23.316;2023-04-16T00:00:05;10.24;58.23
65637;DHT22;52327;42.622;23.316;2023-04-16T00:02:34;10.27;58.56
65637;DHT22;52327;42.622;23.316;2023-04-16T00:04:59;10.30;58.07
65637;DHT22;52327;42.622;23.316;2023-04-16T00:07:25;10.15;58.83
65637;DHT22;52327;42.622;23.316;2023-04-16T00:09:50;10.12;59.21
65637;DHT22;52327;42.622;23.316;2023-04-16T00:12:15;10.20;58.78
65637;DHT22;52327;42.622;23.316;2023-04-16T00:14:41;10.17;59.09
65637;DHT22;52327;42.622;23.316;2023-04-16T00:17:08;10.20;59.08
65637;DHT22;52327;42.622;23.316;2023-04-16T00:19:34;10.17;59.44
65637;DHT22;52327;42.622;23.316;2023-04-16T00:22:00;10.24;58.65
65637;DHT22;52327;42.622;23.316;2023-04-16T00:24:25;10.14;59.35
65637;DHT22;52327;42.622;23.316;2023-04-16T00:26:51;10.17;58.65
65637;DHT22;52327;42.622;23.316;2023-04-16T00:29:16;10.24;58.43
65637;DHT22;52327;42.622;23.316;2023-04-16T00:31:41;10.20;58.96
65637;DHT22;52327;42.622;23.316;2023-04-16T00:34:07;10.31;58.32
65637;DHT22;52327;42.622;23.316;2023-04-16T00:36:32;10.27;58.63
65637;DHT22;52327;42.622;23.316;2023-04-16T00:38:58;10.22;58.99
65637;DHT22;52327;42.622;23.316;2023-04-16T00:41:23;10.10;59.32
65637;DHT22;52327;42.622;23.316;2023-04-16T00:43:49;9.98;59.49
65637;DHT22;52327;42.622;23.316;2023-04-16T00:46:16;10.00;59.89
65637;DHT22;52327;42.622;23.316;2023-04-16T00:48:43;9.93;59.58
65637;DHT22;52327;42.622;23.316;2023-04-16T00:51:09;9.90;58.85
65637;DHT22;52327;42.622;23.316;2023-04-16T00:53:36;9.81;59.86
65637;DHT22;52327;42.622;23.316;2023-04-16T00:56:04;9.81;58.53
65637;DHT22;52327;42.622;23.316;2023-04-16T00:58:30;9.74;58.82
65637;DHT22;52327;42.622;23.316;2023-04-16T01:00:56;9.76;58.87
65637;DHT22;52327;42.622;23.316;2023-04-16T01:03:22;9.66;58.76
65637;DHT22;52327;42.622;23.316;2023-04-16T01:05:48;9.59;58.10
65637;DHT22;52327;42.622;23.316;2023-04-16T01:08:16;9.61;58.80
65637;DHT22;52327;42.622;23.316;2023-04-16T01:10:42;9.64;58.11
65637;DHT22;52327;42.622;23.316;2023-04-16T01:13:07;9.53;58.83
65637;DHT22;52327;42.622;23.316;2023-04-16T01:15:33;9.54;58.44
65637;DHT22;52327;42.622;23.316;2023-04-16T01:17:58;9.47;57.96
65637;DHT22;52327;42.622;23.316;2023-04-16T01:20:23;9.49;58.08
65637;DHT22;52327;42.622;23.316;2023-04-16T01:22:49;9.52;58.81
65637;DHT22;52327;42.622;23.316;2023-04-16T01:25:15;9.67;57.94
65637;DHT22;52327;42.622;23.316;2023-04-16T01:27:40;9.59;58.46
65637;DHT22;52327;42.622;23.316;2023-04-16T01:30:06;9.53;59.67
65637;DHT22;52327;42.622;23.316;2023-04-16T01:32:32;9.39;60.14
65637;DHT22;52327;42.622;23.316;2023-04-16T01:34:57;9.28;60.79
65637;DHT22;52327;42.622;23.316;2023-04-16T01:37:22;9.22;61.05
65637;DHT22;52327;42.622;23.316;2023-04-16T01:39:48;9.26;60.27
65637;DHT22;52327;42.622;23.316;2023-04-16T01:42:13;9.11;61.09
65637;DHT22;52327;42.622;23.316;2023-04-16T01:44:39;9.12;61.32
65637;DHT22;52327;42.622;23.316;2023-04-16T01:47:04;9.16;61.17
65637;DHT22;52327;42.622;23.316;2023-04-16T01:49:30;9.16;61.79
65637;DHT22;52327;42.622;23.316;2023-04-16T01:51:55;9.18;60.71
65637;DHT22;52327;42.622;23.316;2023-04-16T01:54:21;9.20;61.24
65637;DHT22;52327;42.622;23.316;2023-04-16T01:56:46;9.15;61.07
65637;DHT22;52327;42.622;23.316;2023-04-16T01:59:12;9.07;60.81
65637;DHT22;52327;42.622;23.316;2023-04-16T02:01:38;9.18;60.52
65637;DHT22;52327;42.622;23.316;2023-04-16T02:04:03;9.12;60.61
65637;DHT22;52327;42.622;23.316;2023-04-16T02:06:29;9.15;60.05
65637;DHT22;52327;42.622;23.316;2023-04-16T02:08:55;9.09;60.06
65637;DHT22;52327;42.622;23.316;2023-04-16T02:11:21;9.22;59.68
65637;DHT22;52327;42.622;23.316;2023-04-16T02:13:46;9.19;59.52
65637;DHT22;52327;42.622;23.316;2023-04-16T02:16:11;9.29;59.88
65637;DHT22;52327;42.622;23.316;2023-04-16T02:18:37;9.35;60.35
65637;DHT22;52327;42.622;23.316;2023-04-16T02:21:02;9.42;60.96
65637;DHT22;52327;42.622;23.316;2023-04-16T02:23:30;9.44;59.61
65637;DHT22;52327;42.622;23.316;2023-04-16T02:25:55;9.25;59.91
65637;DHT22;52327;42.622;23.316;2023-04-16T02:28:22;9.18;59.65
65637;DHT22;52327;42.622;23.316;2023-04-16T02:30:47;9.19;59.89
65637;DHT22;52327;42.622;23.316;2023-04-16T02:33:13;9.18;59.93
65637;DHT22;52327;42.622;23.316;2023-04-16T02:35:39;9.12;60.90
65637;DHT22;52327;42.622;23.316;2023-04-16T02:38:05;9.08;60.86
65637;DHT22;52327;42.622;23.316;2023-04-16T02:40:31;9.07;60.97
65637;DHT22;52327;42.622;23.316;2023-04-16T02:42:56;9.05;61.31
65637;DHT22;52327;42.622;23.316;2023-04-16T02:45:22;8.95;61.31
65637;DHT22;52327;42.622;23.316;2023-04-16T02:47:48;8.95;61.36
65637;DHT22;52327;42.622;23.316;2023-04-16T02:50:14;8.98;60.89
65637;DHT22;52327;42.622;23.316;2023-04-16T02:52:40;8.95;61.37
65637;DHT22;52327;42.622;23.316;2023-04-16T02:55:06;9.01;61.51
65637;DHT22;52327;42.622;23.316;2023-04-16T02:57:32;9.01;61.11
65637;DHT22;52327;42.622;23.316;2023-04-16T02:59:57;8.98;61.05
65637;DHT22;52327;42.622;23.316;2023-04-16T03:02:23;8.97;61.65
65637;DHT22;52327;42.622;23.316;2023-04-16T03:04:48;8.99;61.12
65637;DHT22;52327;42.622;23.316;2023-04-16T03:07:14;9.04;61.41
65637;DHT22;52327;42.622;23.316;2023-04-16T03:09:40;9.02;61.94
65637;DHT22;52327;42.622;23.316;2023-04-16T03:12:05;9.16;60.55
65637;DHT22;52327;42.622;23.316;2023-04-16T03:14:31;9.19;60.54
65637;DHT22;52327;42.622;23.316;2023-04-16T03:16:57;9.25;60.55
65637;DHT22;52327;42.622;23.316;2023-04-16T03:19:22;9.26;60.56
65637;DHT22;52327;42.622;23.316;2023-04-16T03:21:48;9.28;60.98
65637;DHT22;52327;42.622;23.316;2023-04-16T03:24:13;9.32;60.43
65637;DHT22;52327;42.622;23.316;2023-04-16T03:26:39;9.30;60.03
65637;DHT22;52327;42.622;23.316;2023-04-16T03:29:04;9.36;59.61
65637;DHT22;52327;42.622;23.316;2023-04-16T03:31:30;9.39;59.44
65637;DHT22;52327;42.622;23.316;2023-04-16T03:33:55;9.38;59.35
65637;DHT22;52327;42.622;23.316;2023-04-16T03:36:21;9.46;60.25
65637;DHT22;52327;42.622;23.316;2023-04-16T03:38:51;9.43;60.63
65637;DHT22;52327;42.622;23.316;2023-04-16T03:41:16;9.39;61.19
65637;DHT22;52327;42.622;23.316;2023-04-16T03:43:41;9.46;60.76
65637;DHT22;52327;42.622;23.316;2023-04-16T03:46:07;9.47;60.92
65637;DHT22;52327;42.622;23.316;2023-04-16T03:48:32;9.42;59.76
65637;DHT22;52327;42.622;23.316;2023-04-16T03:50:58;9.36;60.86
65637;DHT22;52327;42.622;23.316;2023-04-16T03:53:23;9.33;61.25
65637;DHT22;52327;42.622;23.316;2023-04-16T03:55:50;9.28;61.58
65637;DHT22;52327;42.622;23.316;2023-04-16T03:58:16;9.20;61.68
65637;DHT22;52327;42.622;23.316;2023-04-16T04:00:41;9.15;62.37
65637;DHT22;52327;42.622;23.316;2023-04-16T04:03:08;9.18;62.67
65637;DHT22;52327;42.622;23.316;2023-04-16T04:05:41;9.15;62.84
65637;DHT22;52327;42.622;23.316;2023-04-16T04:08:07;9.20;62.76
65637;DHT22;52327;42.622;23.316;2023-04-16T04:10:33;9.40;62.70
65637;DHT22;52327;42.622;23.316;2023-04-16T04:13:01;9.54;62.49
65637;DHT22;52327;42.622;23.316;2023-04-16T04:15:27;9.57;62.55
65637;DHT22;52327;42.622;23.316;2023-04-16T04:17:52;9.69;62.95
65637;DHT22;52327;42.622;23.316;2023-04-16T04:20:17;9.90;60.37
65637;DHT22;52327;42.622;23.316;2023-04-16T04:22:43;9.74;62.18
65637;DHT22;52327;42.622;23.316;2023-04-16T04:25:11;9.69;62.21
65637;DHT22;52327;42.622;23.316;2023-04-16T04:27:37;9.64;61.38
65637;DHT22;52327;42.622;23.316;2023-04-16T04:30:02;9.89;60.51
65637;DHT22;52327;42.622;23.316;2023-04-16T04:32:31;9.93;61.81
65637;DHT22;52327;42.622;23.316;2023-04-16T04:34:58;10.04;61.82
65637;DHT22;52327;42.622;23.316;2023-04-16T04:37:24;10.01;63.79
65637;DHT22;52327;42.622;23.316;2023-04-16T04:39:49;10.03;64.05
65637;DHT22;52327;42.622;23.316;2023-04-16T04:42:16;10.01;64.00
65637;DHT22;52327;42.622;23.316;2023-04-16T04:44:43;9.97;64.34
65637;DHT22;52327;42.622;23.316;2023-04-16T04:47:08;10.05;64.32
65637;DHT22;52327;42.622;23.316;2023-04-16T04:49:33;10.20;63.91
65637;DHT22;52327;42.622;23.316;2023-04-16T04:51:59;10.15;63.97
65637;DHT22;52327;42.622;23.316;2023-04-16T04:54:26;10.15;63.96
65637;DHT22;52327;42.622;23.316;2023-04-16T04:56:52;10.20;63.47
65637;DHT22;52327;42.622;23.316;2023-04-16T04:59:21;10.18;62.86
65637;DHT22;52327;42.622;23.316;2023-04-16T05:01:47;10.20;63.16
65637;DHT22;52327;42.622;23.316;2023-04-16T05:04:13;10.28;63.38
65637;DHT22;52327;42.622;23.316;2023-04-16T05:06:38;10.34;63.16
65637;DHT22;52327;42.622;23.316;2023-04-16T05:09:04;10.38;62.15
65637;DHT22;52327;42.622;23.316;2023-04-16T05:11:29;10.56;60.87
65637;DHT22;52327;42.622;23.316;2023-04-16T05:13:55;10.56;61.37
65637;DHT22;52327;42.622;23.316;2023-04-16T05:16:21;10.68;60.86
65637;DHT22;52327;42.622;23.316;2023-04-16T05:18:46;10.65;61.93
65637;DHT22;52327;42.622;23.316;2023-04-16T05:21:11;10.85;61.23
65637;DHT22;52327;42.622;23.316;2023-04-16T05:23:37;10.83;61.71
65637;DHT22;52327;42.622;23.316;2023-04-16T05:26:02;10.79;61.38
65637;DHT22;52327;42.622;23.316;2023-04-16T05:28:29;10.85;61.47
65637;DHT22;52327;42.622;23.316;2023-04-16T05:30:54;10.83;61.09
65637;DHT22;52327;42.622;23.316;2023-04-16T05:33:20;10.99;61.28
65637;DHT22;52327;42.622;23.316;2023-04-16T05:35:45;11.16;61.13
65637;DHT22;52327;42.622;23.316;2023-04-16T05:38:10;11.30;60.99
65637;DHT22;52327;42.622;23.316;2023-04-16T05:40:36;11.45;60.25
65637;DHT22;52327;42.622;23.316;2023-04-16T05:43:01;11.54;60.22
65637;DHT22;52327;42.622;23.316;2023-04-16T05:45:27;11.61;58.81
65637;DHT22;52327;42.622;23.316;2023-04-16T05:47:52;11.81;58.22
65637;DHT22;52327;42.622;23.316;2023-04-16T05:50:18;11.81;57.05
65637;DHT22;52327;42.622;23.316;2023-04-16T05:52:43;11.73;56.46
65637;DHT22;52327;42.622;23.316;2023-04-16T05:55:09;11.60;57.26
65637;DHT22;52327;42.622;23.316;2023-04-16T05:57:34;11.73;57.67
65637;DHT22;52327;42.622;23.316;2023-04-16T06:00:00;11.85;57.68
65637;DHT22;52327;42.622;23.316;2023-04-16T06:02:25;11.98;57.84
65637;DHT22;52327;42.622;23.316;2023-04-16T06:04:50;12.16;57.44
65637;DHT22;52327;42.622;23.316;2023-04-16T06:07:16;12.29;57.30
65637;DHT22;52327;42.622;23.316;2023-04-16T06:09:41;12.42;56.90
65637;DHT22;52327;42.622;23.316;2023-04-16T06:12:07;12.59;55.87
65637;DHT22;52327;42.622;23.316;2023-04-16T06:14:32;12.63;54.53
65637;DHT22;52327;42.622;23.316;2023-04-16T06:16:57;12.79;54.92
65637;DHT22;52327;42.622;23.316;2023-04-16T06:19:23;12.91;55.15
65637;DHT22;52327;42.622;23.316;2023-04-16T06:21:49;13.01;54.41
65637;DHT22;52327;42.622;23.316;2023-04-16T06:24:14;13.01;53.14
65637;DHT22;52327;42.622;23.316;2023-04-16T06:26:40;12.75;53.55
65637;DHT22;52327;42.622;23.316;2023-04-16T06:29:05;12.70;53.88
65637;DHT22;52327;42.622;23.316;2023-04-16T06:31:30;12.90;54.57
65637;DHT22;52327;42.622;23.316;2023-04-16T06:33:56;13.19;53.50
65637;DHT22;52327;42.622;23.316;2023-04-16T06:36:22;13.27;53.70
65637;DHT22;52327;42.622;23.316;2023-04-16T06:38:47;13.22;53.28
65637;DHT22;52327;42.622;23.316;2023-04-16T06:41:13;13.07;53.80
65637;DHT22;52327;42.622;23.316;2023-04-16T06:43:39;13.18;52.70
65637;DHT22;52327;42.622;23.316;2023-04-16T06:46:05;12.91;54.14
65637;DHT22;52327;42.622;23.316;2023-04-16T06:48:30;12.91;53.82
65637;DHT22;52327;42.622;23.316;2023-04-16T06:50:55;12.96;52.96
65637;DHT22;52327;42.622;23.316;2023-04-16T06:53:22;12.81;53.41
65637;DHT22;52327;42.622;23.316;2023-04-16T06:55:47;12.76;53.65
65637;DHT22;52327;42.622;23.316;2023-04-16T06:58:16;12.70;53.86
65637;DHT22;52327;42.622;23.316;2023-04-16T07:00:41;12.94;54.14
65637;DHT22;52327;42.622;23.316;2023-04-16T07:03:06;13.24;52.81
65637;DHT22;52327;42.622;23.316;2023-04-16T07:05:32;13.29;52.49
65637;DHT22;52327;42.622;23.316;2023-04-16T07:07:58;13.15;53.03
65637;DHT22;52327;42.622;23.316;2023-04-16T07:10:23;13.18;53.14
65637;DHT22;52327;42.622;23.316;2023-04-16T07:12:49;13.19;53.29
65637;DHT22;52327;42.622;23.316;2023-04-16T07:15:14;13.14;53.22
65637;DHT22;52327;42.622;23.316;2023-04-16T07:17:40;13.04;53.76
65637;DHT22;52327;42.622;23.316;2023-04-16T07:20:06;12.87;53.21
65637;DHT22;52327;42.622;23.316;2023-04-16T07:22:32;12.93;53.68
65637;DHT22;52327;42.622;23.316;2023-04-16T07:24:57;12.80;53.97
65637;DHT22;52327;42.622;23.316;2023-04-16T07:27:22;13.04;54.02
65637;DHT22;52327;42.622;23.316;2023-04-16T07:29:48;13.24;53.44
65637;DHT22;52327;42.622;23.316;2023-04-16T07:32:14;13.38;52.85
65637;DHT22;52327;42.622;23.316;2023-04-16T07:34:40;13.45;53.20
65637;DHT22;52327;42.622;23.316;2023-04-16T07:37:05;13.58;53.00
65637;DHT22;52327;42.622;23.316;2023-04-16T07:39:30;13.66;52.54
65637;DHT22;52327;42.622;23.316;2023-04-16T07:41:56;13.86;52.60
65637;DHT22;52327;42.622;23.316;2023-04-16T07:44:21;13.68;52.66
65637;DHT22;52327;42.622;23.316;2023-04-16T07:46:47;13.70;52.95
65637;DHT22;52327;42.622;23.316;2023-04-16T07:49:12;13.85;52.56
65637;DHT22;52327;42.622;23.316;2023-04-16T07:51:38;13.76;52.02
65637;DHT22;52327;42.622;23.316;2023-04-16T07:54:03;13.79;52.38
65637;DHT22;52327;42.622;23.316;2023-04-16T07:56:28;13.79;51.98
65637;DHT22;52327;42.622;23.316;2023-04-16T07:58:54;14.19;51.90
65637;DHT22;52327;42.622;23.316;2023-04-16T08:01:20;14.29;50.45
65637;DHT22;52327;42.622;23.316;2023-04-16T08:03:45;14.20;51.20
65637;DHT22;52327;42.622;23.316;2023-04-16T08:06:11;14.50;51.26
65637;DHT22;52327;42.622;23.316;2023-04-16T08:08:36;14.48;49.65
65637;DHT22;52327;42.622;23.316;2023-04-16T08:11:01;14.56;50.67
65637;DHT22;52327;42.622;23.316;2023-04-16T08:13:27;14.92;49.73
65637;DHT22;52327;42.622;23.316;2023-04-16T08:15:52;15.02;48.97
65637;DHT22;52327;42.622;23.316;2023-04-16T08:18:18;15.02;49.83
65637;DHT22;52327;42.622;23.316;2023-04-16T08:20:43;15.06;48.99
65637;DHT22;52327;42.622;23.316;2023-04-16T08:23:09;14.65;50.05
65637;DHT22;52327;42.622;23.316;2023-04-16T08:25:34;14.71;50.74
65637;DHT22;52327;42.622;23.316;2023-04-16T08:28:00;14.99;49.38
65637;DHT22;52327;42.622;23.316;2023-04-16T08:30:25;15.15;49.44
65637;DHT22;52327;42.622;23.316;2023-04-16T08:32:51;15.44;48.79
65637;DHT22;52327;42.622;23.316;2023-04-16T08:35:17;15.84;47.75
65637;DHT22;52327;42.622;23.316;2023-04-16T08:37:42;15.90;46.56
65637;DHT22;52327;42.622;23.316;2023-04-16T08:40:08;15.76;47.09
65637;DHT22;52327;42.622;23.316;2023-04-16T08:42:42;16.07;46.23
65637;DHT22;52327;42.622;23.316;2023-04-16T08:47:37;16.36;45.34
65637;DHT22;52327;42.622;23.316;2023-04-16T08:50:04;16.52;44.97
65637;DHT22;52327;42.622;23.316;2023-04-16T08:52:30;16.64;45.48
65637;DHT22;52327;42.622;23.316;2023-04-16T08:55:03;16.58;45.43
65637;DHT22;52327;42.622;23.316;2023-04-16T08:57:56;16.62;44.51
65637;DHT22;52327;42.622;23.316;2023-04-16T09:00:19;16.26;45.21
65637;DHT22;52327;42.622;23.316;2023-04-16T09:02:45;16.20;45.80
65637;DHT22;52327;42.622;23.316;2023-04-16T09:05:13;16.03;45.59
65637;DHT22;52327;42.622;23.316;2023-04-16T09:07:43;16.24;44.44
65637;DHT22;52327;42.622;23.316;2023-04-16T09:10:09;16.07;45.26
65637;DHT22;52327;42.622;23.316;2023-04-16T09:12:34;16.31;44.72
65637;DHT22;52327;42.622;23.316;2023-04-16T09:15:00;16.86;43.85
65637;DHT22;52327;42.622;23.316;2023-04-16T09:17:27;17.07;43.33
65637;DHT22;52327;42.622;23.316;2023-04-16T09:19:53;16.45;44.28
65637;DHT22;52327;42.622;23.316;2023-04-16T09:22:19;16.85;44.88
65637;DHT22;52327;42.622;23.316;2023-04-16T09:24:45;17.15;43.43
65637;DHT22;52327;42.622;23.316;2023-04-16T09:27:11;17.54;42.54
65637;DHT22;52327;42.622;23.316;2023-04-16T09:29:39;17.91;42.89
65637;DHT22;52327;42.622;23.316;2023-04-16T09:32:07;17.64;40.27
65637;DHT22;52327;42.622;23.316;2023-04-16T09:34:33;16.69;42.39
65637;DHT22;52327;42.622;23.316;2023-04-16T09:37:17;16.97;41.83
65637;DHT22;52327;42.622;23.316;2023-04-16T09:39:43;17.28;40.30
65637;DHT22;52327;42.622;23.316;2023-04-16T09:42:10;17.41;41.12
65637;DHT22;52327;42.622;23.316;2023-04-16T09:44:36;17.38;41.21
65637;DHT22;52327;42.622;23.316;2023-04-16T09:47:07;17.28;41.78
65637;DHT22;52327;42.622;23.316;2023-04-16T09:49:33;17.33;41.70
65637;DHT22;52327;42.622;23.316;2023-04-16T09:52:00;16.76;42.56
65637;DHT22;52327;42.622;23.316;2023-04-16T09:54:26;16.56;43.36
65637;DHT22;52327;42.622;23.316;2023-04-16T09:56:55;16.99;42.93
65637;DHT22;52327;42.622;23.316;2023-04-16T09:59:22;17.16;41.86
65637;DHT22;52327;42.622;23.316;2023-04-16T10:01:48;17.22;42.33
65637;DHT22;52327;42.622;23.316;2023-04-16T10:04:14;17.51;41.75
65637;DHT22;52327;42.622;23.316;2023-04-16T10:06:40;17.60;41.32
65637;DHT22;52327;42.622;23.316;2023-04-16T10:09:07;17.33;41.60
65637;DHT22;52327;42.622;23.316;2023-04-16T10:11:33;17.17;42.12
65637;DHT22;52327;42.622;23.316;2023-04-16T10:13:59;17.60;41.89
65637;DHT22;52327;42.622;23.316;2023-04-16T10:16:25;17.54;40.95
65637;DHT22;52327;42.622;23.316;2023-04-16T10:18:52;17.47;41.72
65637;DHT22;52327;42.622;23.316;2023-04-16T10:21:18;17.75;42.01
65637;DHT22;52327;42.622;23.316;2023-04-16T10:23:44;18.12;41.08
65637;DHT22;52327;42.622;23.316;2023-04-16T10:26:10;18.40;40.49
65637;DHT22;52327;42.622;23.316;2023-04-16T10:28:36;18.59;39.66
65637;DHT22;52327;42.622;23.316;2023-04-16T10:31:04;18.26;39.76
65637;DHT22;52327;42.622;23.316;2023-04-16T10:33:32;18.56;38.55
65637;DHT22;52327;42.622;23.316;2023-04-16T10:38:32;18.36;39.69
65637;DHT22;52327;42.622;23.316;2023-04-16T10:41:02;18.57;39.50
65637;DHT22;52327;42.622;23.316;2023-04-16T10:43:29;18.67;38.93
65637;DHT22;52327;42.622;23.316;2023-04-16T10:45:54;19.08;38.93
65637;DHT22;52327;42.622;23.316;2023-04-16T10:48:22;19.30;38.50
65637;DHT22;52327;42.622;23.316;2023-04-16T10:50:55;19.42;38.40
65637;DHT22;52327;42.622;23.316;2023-04-16T10:58:28;19.01;38.09
65637;DHT22;52327;42.622;23.316;2023-04-16T11:00:54;19.06;38.49
65637;DHT22;52327;42.622;23.316;2023-04-16T11:03:23;18.70;38.49
65637;DHT22;52327;42.622;23.316;2023-04-16T11:05:48;18.77;38.80
65637;DHT22;52327;42.622;23.316;2023-04-16T11:08:14;18.99;38.27
65637;DHT22;52327;42.622;23.316;2023-04-16T11:10:40;19.27;38.34
65637;DHT22;52327;42.622;23.316;2023-04-16T11:13:06;19.54;37.80
65637;DHT22;52327;42.622;23.316;2023-04-16T11:15:33;19.85;37.99
65637;DHT22;52327;42.622;23.316;2023-04-16T11:17:59;20.16;37.00
65637;DHT22;52327;42.622;23.316;2023-04-16T11:20:26;20.39;37.14
65637;DHT22;52327;42.622;23.316;2023-04-16T11:22:54;20.48;35.49
65637;DHT22;52327;42.622;23.316;2023-04-16T11:25:21;20.55;35.81
65637;DHT22;52327;42.622;23.316;2023-04-16T11:27:47;20.50;36.27
65637;DHT22;52327;42.622;23.316;2023-04-16T11:30:13;20.68;36.46
65637;DHT22;52327;42.622;23.316;2023-04-16T11:32:39;20.68;37.29
65637;DHT22;52327;42.622;23.316;2023-04-16T11:35:13;20.75;38.96
65637;DHT22;52327;42.622;23.316;2023-04-16T11:37:38;20.64;42.74
65637;DHT22;52327;42.622;23.316;2023-04-16T11:40:05;20.67;43.65
65637;DHT22;52327;42.622;23.316;2023-04-16T11:42:32;20.64;42.09
65637;DHT22;52327;42.622;23.316;2023-04-16T11:44:59;20.37;42.19
65637;DHT22;52327;42.622;23.316;2023-04-16T11:47:26;20.26;43.16
65637;DHT22;52327;42.622;23.316;2023-04-16T11:49:51;20.16;42.36
65637;DHT22;52327;42.622;23.316;2023-04-16T11:52:31;20.12;49.36
65637;DHT22;52327;42.622;23.316;2023-04-16T11:54:57;20.39;46.67
65637;DHT22;52327;42.622;23.316;2023-04-16T11:57:27;20.57;47.16
65637;DHT22;52327;42.622;23.316;2023-04-16T11:59:54;20.82;45.71
65637;DHT22;52327;42.622;23.316;2023-04-16T12:05:04;21.31;42.71
65637;DHT22;52327;42.622;23.316;2023-04-16T12:07:29;20.95;37.76
65637;DHT22;52327;42.622;23.316;2023-04-16T12:10:05;21.09;36.54
65637;DHT22;52327;42.622;23.316;2023-04-16T12:12:32;21.59;36.80
65637;DHT22;52327;42.622;23.316;2023-04-16T12:14:58;21.70;37.20
65637;DHT22;52327;42.622;23.316;2023-04-16T12:17:27;21.82;37.52
65637;DHT22;52327;42.622;23.316;2023-04-16T12:19:57;21.62;38.16
65637;DHT22;52327;42.622;23.316;2023-04-16T12:22:30;21.32;38.22
65637;DHT22;52327;42.622;23.316;2023-04-16T12:25:09;21.08;38.56
65637;DHT22;52327;42.622;23.316;2023-04-16T12:27:48;20.82;39.25
65637;DHT22;52327;42.622;23.316;2023-04-16T12:30:16;20.65;38.88
65637;DHT22;52327;42.622;23.316;2023-04-16T12:32:44;20.47;39.93
65637;DHT22;52327;42.622;23.316;2023-04-16T12:35:11;20.24;40.46
65637;DHT22;52327;42.622;23.316;2023-04-16T12:37:37;19.61;40.76
65637;DHT22;52327;42.622;23.316;2023-04-16T12:40:03;19.42;42.15
65637;DHT22;52327;42.622;23.316;2023-04-16T12:42:32;19.24;41.85
65637;DHT22;52327;42.622;23.316;2023-04-16T12:45:04;19.04;43.16
65637;DHT22;52327;42.622;23.316;2023-04-16T12:47:31;18.86;43.89
65637;DHT22;52327;42.622;23.316;2023-04-16T12:49:58;18.81;42.39
65637;DHT22;52327;42.622;23.316;2023-04-16T12:52:24;18.79;42.16
65637;DHT22;52327;42.622;23.316;2023-04-16T12:54:50;18.66;42.80
65637;DHT22;52327;42.622;23.316;2023-04-16T12:57:15;18.22;42.39
65637;DHT22;52327;42.622;23.316;2023-04-16T12:59:41;17.85;42.25
65637;DHT22;52327;42.622;23.316;2023-04-16T13:02:06;17.46;44.23
65637;DHT22;52327;42.622;23.316;2023-04-16T13:04:32;17.27;44.51
65637;DHT22;52327;42.622;23.316;2023-04-16T13:06:58;17.15;45.24
65637;DHT22;52327;42.622;23.316;2023-04-16T13:09:23;16.77;47.36
65637;DHT22;52327;42.622;23.316;2023-04-16T13:11:50;16.45;50.44
65637;DHT22;52327;42.622;23.316;2023-04-16T13:14:15;16.31;48.53
65637;DHT22;52327;42.622;23.316;2023-04-16T13:16:41;16.44;50.52
65637;DHT22;52327;42.622;23.316;2023-04-16T13:19:06;16.31;49.89
65637;DHT22;52327;42.622;23.316;2023-04-16T13:21:32;16.08;49.90
65637;DHT22;52327;42.622;23.316;2023-04-16T13:23:58;15.56;51.84
65637;DHT22;52327;42.622;23.316;2023-04-16T13:26:25;14.95;56.73
65637;DHT22;52327;42.622;23.316;2023-04-16T13:28:50;14.30;60.68
65637;DHT22;52327;42.622;23.316;2023-04-16T13:31:16;13.66;64.77
65637;DHT22;52327;42.622;23.316;2023-04-16T13:33:44;12.93;73.64
65637;DHT22;52327;42.622;23.316;2023-04-16T13:36:10;12.25;77.94
65637;DHT22;52327;42.622;23.316;2023-04-16T13:38:35;11.89;79.84
65637;DHT22;52327;42.622;23.316;2023-04-16T13:41:01;11.63;83.08
65637;DHT22;52327;42.622;23.316;2023-04-16T13:43:26;11.37;81.29
65637;DHT22;52327;42.622;23.316;2023-04-16T13:45:52;11.43;85.15
65637;DHT22;52327;42.622;23.316;2023-04-16T13:48:17;11.50;85.10
65637;DHT22;52327;42.622;23.316;2023-04-16T13:50:42;11.58;82.15
65637;DHT22;52327;42.622;23.316;2023-04-16T13:53:08;11.84;85.31
65637;DHT22;52327;42.622;23.316;2023-04-16T13:55:34;12.18;85.49
65637;DHT22;52327;42.622;23.316;2023-04-16T13:58:00;12.61;84.03
65637;DHT22;52327;42.622;23.316;2023-04-16T14:00:25;13.15;79.21
65637;DHT22;52327;42.622;23.316;2023-04-16T14:02:52;13.38;75.22
65637;DHT22;52327;42.622;23.316;2023-04-16T14:05:17;13.68;76.71
65637;DHT22;52327;42.622;23.316;2023-04-16T14:07:44;13.72;77.91
65637;DHT22;52327;42.622;23.316;2023-04-16T14:10:09;13.73;81.57
65637;DHT22;52327;42.622;23.316;2023-04-16T14:12:36;13.57;82.57
65637;DHT22;52327;42.622;23.316;2023-04-16T14:15:05;13.61;81.55
65637;DHT22;52327;42.622;23.316;2023-04-16T14:17:30;13.61;82.46
65637;DHT22;52327;42.622;23.316;2023-04-16T14:19:56;13.62;82.83
65637;DHT22;52327;42.622;23.316;2023-04-16T14:22:21;13.63;77.07
65637;DHT22;52327;42.622;23.316;2023-04-16T14:24:47;13.68;81.36
65637;DHT22;52327;42.622;23.316;2023-04-16T14:27:12;13.66;81.59
65637;DHT22;52327;42.622;23.316;2023-04-16T14:29:38;13.63;82.08
65637;DHT22;52327;42.622;23.316;2023-04-16T14:32:03;13.61;79.62
65637;DHT22;52327;42.622;23.316;2023-04-16T14:34:29;13.54;81.40
65637;DHT22;52327;42.622;23.316;2023-04-16T14:36:54;13.42;78.17
65637;DHT22;52327;42.622;23.316;2023-04-16T14:39:20;13.37;76.24
65637;DHT22;52327;42.622;23.316;2023-04-16T14:41:46;13.08;75.48
65637;DHT22;52327;42.622;23.316;2023-04-16T14:44:11;13.08;74.20
65637;DHT22;52327;42.622;23.316;2023-04-16T14:46:37;13.28;75.69
65637;DHT22;52327;42.622;23.316;2023-04-16T14:49:05;13.32;78.56
65637;DHT22;52327;42.622;23.316;2023-04-16T14:51:30;13.41;73.80
65637;DHT22;52327;42.622;23.316;2023-04-16T14:53:56;13.44;77.85
65637;DHT22;52327;42.622;23.316;2023-04-16T14:56:21;13.37;75.16
65637;DHT22;52327;42.622;23.316;2023-04-16T14:58:47;13.31;78.29
65637;DHT22;52327;42.622;23.316;2023-04-16T15:01:12;13.38;76.94
65637;DHT22;52327;42.622;23.316;2023-04-16T15:03:39;13.24;74.69
65637;DHT22;52327;42.622;23.316;2023-04-16T15:06:05;13.32;70.24
65637;DHT22;52327;42.622;23.316;2023-04-16T15:08:31;13.14;75.57
65637;DHT22;52327;42.622;23.316;2023-04-16T15:10:56;13.11;77.00
65637;DHT22;52327;42.622;23.316;2023-04-16T15:13:22;13.06;74.51
65637;DHT22;52327;42.622;23.316;2023-04-16T15:15:48;13.00;75.18
65637;DHT22;52327;42.622;23.316;2023-04-16T15:18:13;12.97;74.30
65637;DHT22;52327;42.622;23.316;2023-04-16T15:20:40;12.84;72.98
65637;DHT22;52327;42.622;23.316;2023-04-16T15:23:06;12.84;75.21
65637;DHT22;52327;42.622;23.316;2023-04-16T15:25:31;12.80;69.90